sensor_id;sensor_type;location;lat;lon;timestamp;pressure;altitude;pressure_sealevel;temperature;humidity
57572;BME280;44459;43.522;24.470;2023-04-25T00:00:29;99340.38;;;12.91;100.00
57572;BME280;44459;43.522;24.470;2023-04-25T00:02:54;99342.09;;;12.94;100.00
57572;BME280;44459;43.522;24.470;2023-04-25T00:05:22;99356.22;;;12.94;100.00
57572;BME280;44459;43.522;24.470;2023-04-25T00:07:49;99352.66;;;12.97;100.00
57572;BME280;44459;43.522;24.470;2023-04-25T00:10:14;99363.28;;;12.94;100.00
57572;BME280;44459;43.522;24.470;2023-04-25T00:12:40;99363.28;;;12.94;100.00
57572;BME280;44459;43.522;24.470;2023-04-25T00:15:06;99364.94;;;12.99;100.00
57572;BME280;44459;43.522;24.470;2023-04-25T00:17:32;99358.84;;;12.96;100.00
57572;BME280;44459;43.522;24.470;2023-04-25T00:19:57;99342.28;;;12.83;100.00
57572;BME280;44459;43.522;24.470;2023-04-25T00:22:23;99340.59;;;12.79;100.00
57572;BME280;44459;43.522;24.470;2023-04-25T00:24:49;99331.91;;;12.71;100.00
57572;BME280;44459;43.522;24.470;2023-04-25T00:27:15;99333.75;;;12.66;100.00
57572;BME280;44459;43.522;24.470;2023-04-25T00:29:40;99338.97;;;12.71;100.00
57572;BME280;44459;43.522;24.470;2023-04-25T00:32:06;99340.53;;;12.81;100.00
57572;BME280;44459;43.522;24.470;2023-04-25T00:34:31;99336.94;;;12.85;100.00
57572;BME280;44459;43.522;24.470;2023-04-25T00:36:56;99337.78;;;12.88;100.00
57572;BME280;44459;43.522;24.470;2023-04-25T00:39:22;99340.38;;;12.91;100.00
57572;BME280;44459;43.522;24.470;2023-04-25T00:41:47;99335.03;;;12.94;100.00
57572;BME280;44459;43.522;24.470;2023-04-25T00:44:14;99327.97;;;12.93;100.00
57572;BME280;44459;43.522;24.470;2023-04-25T00:46:42;99330.56;;;12.98;100.00
57572;BME280;44459;43.522;24.470;2023-04-25T00:49:08;99332.31;;;12.97;100.00
57572;BME280;44459;43.522;24.470;2023-04-25T00:51:33;99322.63;;;12.95;100.00
57572;BME280;44459;43.522;24.470;2023-04-25T00:54:00;99331.44;;;12.97;100.00
57572;BME280;44459;43.522;24.470;2023-04-25T00:56:25;99326.22;;;12.92;100.00
57572;BME280;44459;43.522;24.470;2023-04-25T00:58:53;99325.41;;;12.89;100.00
57572;BME280;44459;43.522;24.470;2023-04-25T01:01:22;99317.53;;;12.86;100.00
57572;BME280;44459;43.522;24.470;2023-04-25T01:03:49;99316.63;;;12.85;100.00
57572;BME280;44459;43.522;24.470;2023-04-25T01:06:16;99330.88;;;12.80;100.00
57572;BME280;44459;43.522;24.470;2023-04-25T01:08:41;99326.53;;;12.77;100.00
57572;BME280;44459;43.522;24.470;2023-04-25T01:11:07;99319.47;;;12.75;100.00
57572;BME280;44459;43.522;24.470;2023-04-25T01:13:34;99325.78;;;12.68;100.00
57572;BME280;44459;43.522;24.470;2023-04-25T01:16:00;99321.41;;;12.65;100.00
57572;BME280;44459;43.522;24.470;2023-04-25T01:18:26;99322.31;;;12.64;100.00
57572;BME280;44459;43.522;24.470;2023-04-25T01:20:52;99319.69;;;12.63;100.00
57572;BME280;44459;43.522;24.470;2023-04-25T01:23:20;99313.47;;;12.65;100.00
57572;BME280;44459;43.522;24.470;2023-04-25T01:25:45;99305.63;;;12.59;100.00
57572;BME280;44459;43.522;24.470;2023-04-25T01:28:12;99302.06;;;12.60;100.00
57572;BME280;44459;43.522;24.470;2023-04-25T01:30:38;99292.41;;;12.57;100.00
57572;BME280;44459;43.522;24.470;2023-04-25T01:33:04;99294.16;;;12.58;100.00
57572;BME280;44459;43.522;24.470;2023-04-25T01:35:31;99302.13;;;12.57;100.00
57572;BME280;44459;43.522;24.470;2023-04-25T01:37:57;99286.34;;;12.51;100.00
57572;BME280;44459;43.522;24.470;2023-04-25T01:40:24;99277.53;;;12.52;100.00
57572;BME280;44459;43.522;24.470;2023-04-25T01:42:50;99277.53;;;12.52;100.00
57572;BME280;44459;43.522;24.470;2023-04-25T01:45:17;99275.75;;;12.51;100.00
57572;BME280;44459;43.522;24.470;2023-04-25T01:47:43;99274.00;;;12.50;100.00
57572;BME280;44459;43.522;24.470;2023-04-25T01:50:11;99269.59;;;12.50;100.00
57572;BME280;44459;43.522;24.470;2023-04-25T01:52:37;99270.53;;;12.48;100.00
57572;BME280;44459;43.522;24.470;2023-04-25T01:55:03;99252.94;;;12.44;100.00
57572;BME280;44459;43.522;24.470;2023-04-25T01:57:28;99260.00;;;12.43;100.00
57572;BME280;44459;43.522;24.470;2023-04-25T02:00:05;99261.88;;;12.37;100.00
57572;BME280;44459;43.522;24.470;2023-04-25T02:02:32;99260.13;;;12.36;100.00
57572;BME280;44459;43.522;24.470;2023-04-25T02:04:57;99248.72;;;12.32;100.00
57572;BME280;44459;43.522;24.470;2023-04-25T02:07:22;99251.34;;;12.34;100.00
57572;BME280;44459;43.522;24.470;2023-04-25T02:09:48;99254.06;;;12.31;100.00
57572;BME280;44459;43.522;24.470;2023-04-25T02:12:13;99251.38;;;12.32;100.00
57572;BME280;44459;43.522;24.470;2023-04-25T02:14:39;99247.00;;;12.30;100.00
57572;BME280;44459;43.522;24.470;2023-04-25T02:17:05;99251.47;;;12.28;100.00
57572;BME280;44459;43.522;24.470;2023-04-25T02:19:31;99246.22;;;12.25;100.00
57572;BME280;44459;43.522;24.470;2023-04-25T02:21:56;99239.25;;;12.21;100.00
57572;BME280;44459;43.522;24.470;2023-04-25T02:24:22;99242.78;;;12.20;100.00
57572;BME280;44459;43.522;24.470;2023-04-25T02:26:47;99246.34;;;12.17;100.00
57572;BME280;44459;43.522;24.470;2023-04-25T02:29:14;99240.16;;;12.18;100.00
57572;BME280;44459;43.522;24.470;2023-04-25T02:31:40;99234.88;;;12.18;100.00
57572;BME280;44459;43.522;24.470;2023-04-25T02:34:05;99241.88;;;12.21;100.00
57572;BME280;44459;43.522;24.470;2023-04-25T02:36:31;99233.94;;;12.21;100.00
57572;BME280;44459;43.522;24.470;2023-04-25T02:39:00;99227.78;;;12.20;100.00
57572;BME280;44459;43.522;24.470;2023-04-25T02:41:25;99233.00;;;12.23;100.00
57572;BME280;44459;43.522;24.470;2023-04-25T02:43:51;99219.81;;;12.22;100.00
57572;BME280;44459;43.522;24.470;2023-04-25T02:46:16;99236.50;;;12.25;100.00
57572;BME280;44459;43.522;24.470;2023-04-25T02:48:42;99231.19;;;12.25;100.00
57572;BME280;44459;43.522;24.470;2023-04-25T02:51:07;99224.13;;;12.27;100.00
57572;BME280;44459;43.522;24.470;2023-04-25T02:53:32;99232.94;;;12.28;100.00
57572;BME280;44459;43.522;24.470;2023-04-25T02:55:58;99231.19;;;12.28;100.00
57572;BME280;44459;43.522;24.470;2023-04-25T02:58:24;99232.06;;;12.26;100.00
57572;BME280;44459;43.522;24.470;2023-04-25T03:00:50;99232.97;;;12.26;100.00
57572;BME280;44459;43.522;24.470;2023-04-25T03:03:15;99230.31;;;12.26;100.00
57572;BME280;44459;43.522;24.470;2023-04-25T03:05:43;99230.25;;;12.31;100.00
57572;BME280;44459;43.522;24.470;2023-04-25T03:08:09;99237.22;;;12.35;100.00
57572;BME280;44459;43.522;24.470;2023-04-25T03:10:34;99230.25;;;12.31;100.00
57572;BME280;44459;43.522;24.470;2023-04-25T03:13:00;99226.72;;;12.32;100.00
57572;BME280;44459;43.522;24.470;2023-04-25T03:15:25;99227.56;;;12.32;100.00
57572;BME280;44459;43.522;24.470;2023-04-25T03:17:51;99238.97;;;12.36;100.00
57572;BME280;44459;43.522;24.470;2023-04-25T03:20:16;99236.31;;;12.37;100.00
57572;BME280;44459;43.522;24.470;2023-04-25T03:22:42;99224.91;;;12.32;100.00
57572;BME280;44459;43.522;24.470;2023-04-25T03:25:07;99216.97;;;12.32;100.00
57572;BME280;44459;43.522;24.470;2023-04-25T03:27:33;99224.88;;;12.35;100.00
57572;BME280;44459;43.522;24.470;2023-04-25T03:29:58;99219.53;;;12.37;100.00
57572;BME280;44459;43.522;24.470;2023-04-25T03:32:24;99215.13;;;12.39;100.00
57572;BME280;44459;43.522;24.470;2023-04-25T03:34:50;99224.78;;;12.40;100.00
57572;BME280;44459;43.522;24.470;2023-04-25T03:37:15;99225.66;;;12.42;100.00
57572;BME280;44459;43.522;24.470;2023-04-25T03:39:41;99226.47;;;12.44;100.00
57572;BME280;44459;43.522;24.470;2023-04-25T03:42:06;99227.34;;;12.46;100.00
57572;BME280;44459;43.522;24.470;2023-04-25T03:44:32;99229.06;;;12.47;100.00
57572;BME280;44459;43.522;24.470;2023-04-25T03:46:57;99230.81;;;12.49;100.00
57572;BME280;44459;43.522;24.470;2023-04-25T03:49:23;99238.72;;;12.51;100.00
57572;BME280;44459;43.522;24.470;2023-04-25T03:51:48;99241.41;;;12.49;100.00
57572;BME280;44459;43.522;24.470;2023-04-25T03:54:13;99242.19;;;12.53;100.00
57572;BME280;44459;43.522;24.470;2023-04-25T03:56:39;99243.94;;;12.54;100.00
57572;BME280;44459;43.522;24.470;2023-04-25T03:59:04;99236.06;;;12.51;100.00
57572;BME280;44459;43.522;24.470;2023-04-25T04:01:30;99234.25;;;12.53;100.00
57572;BME280;44459;43.522;24.470;2023-04-25T04:03:55;99243.06;;;12.53;100.00
57572;BME280;44459;43.522;24.470;2023-04-25T04:06:21;99238.59;;;12.57;100.00
57572;BME280;44459;43.522;24.470;2023-04-25T04:08:46;99241.22;;;12.58;100.00
57572;BME280;44459;43.522;24.470;2023-04-25T04:11:12;99244.69;;;12.60;100.00
57572;BME280;44459;43.522;24.470;2023-04-25T04:13:37;99255.28;;;12.60;100.00
57572;BME280;44459;43.522;24.470;2023-04-25T04:16:03;99252.59;;;12.63;100.00
57572;BME280;44459;43.522;24.470;2023-04-25T04:18:29;99250.88;;;12.63;100.00
57572;BME280;44459;43.522;24.470;2023-04-25T04:20:55;99250.75;;;12.67;100.00
57572;BME280;44459;43.522;24.470;2023-04-25T04:23:23;99253.38;;;12.70;100.00
57572;BME280;44459;43.522;24.470;2023-04-25T04:25:48;99259.44;;;12.75;100.00
57572;BME280;44459;43.522;24.470;2023-04-25T04:28:14;99259.44;;;12.77;100.00
57572;BME280;44459;43.522;24.470;2023-04-25T04:30:41;99269.00;;;12.84;100.00
57572;BME280;44459;43.522;24.470;2023-04-25T04:33:08;99271.56;;;12.88;100.00
57572;BME280;44459;43.522;24.470;2023-04-25T04:35:34;99258.25;;;12.91;100.00
57572;BME280;44459;43.522;24.470;2023-04-25T04:37:59;99265.22;;;12.97;100.00
57572;BME280;44459;43.522;24.470;2023-04-25T04:40:25;99270.41;;;13.03;100.00
57572;BME280;44459;43.522;24.470;2023-04-25T04:42:50;99260.59;;;13.06;100.00
57572;BME280;44459;43.522;24.470;2023-04-25T04:45:16;99269.38;;;13.12;100.00
57572;BME280;44459;43.522;24.470;2023-04-25T04:47:43;99262.28;;;13.12;100.00
57572;BME280;44459;43.522;24.470;2023-04-25T04:50:09;99269.22;;;13.19;100.00
57572;BME280;44459;43.522;24.470;2023-04-25T04:52:36;99266.53;;;13.22;100.00
57572;BME280;44459;43.522;24.470;2023-04-25T04:55:02;99250.56;;;13.24;100.00
57572;BME280;44459;43.522;24.470;2023-04-25T04:57:28;99254.78;;;13.34;100.00
57572;BME280;44459;43.522;24.470;2023-04-25T04:59:53;99250.22;;;13.40;100.00
57572;BME280;44459;43.522;24.470;2023-04-25T05:02:19;99256.41;;;13.41;100.00
57572;BME280;44459;43.522;24.470;2023-04-25T05:04:45;99252.00;;;13.40;100.00
57572;BME280;44459;43.522;24.470;2023-04-25T05:07:10;99249.34;;;13.40;100.00
57572;BME280;44459;43.522;24.470;2023-04-25T05:09:36;99253.72;;;13.42;100.00
57572;BME280;44459;43.522;24.470;2023-04-25T05:12:02;99260.75;;;13.45;100.00
57572;BME280;44459;43.522;24.470;2023-04-25T05:14:28;99254.63;;;13.43;100.00
57572;BME280;44459;43.522;24.470;2023-04-25T05:16:53;99257.28;;;13.41;100.00
57572;BME280;44459;43.522;24.470;2023-04-25T05:19:19;99259.03;;;13.42;100.00
57572;BME280;44459;43.522;24.470;2023-04-25T05:21:44;99251.03;;;13.44;100.00
57572;BME280;44459;43.522;24.470;2023-04-25T05:24:10;99259.72;;;13.52;100.00
57572;BME280;44459;43.522;24.470;2023-04-25T05:26:36;99253.38;;;13.57;100.00
57572;BME280;44459;43.522;24.470;2023-04-25T05:29:02;99256.75;;;13.66;100.00
57572;BME280;44459;43.522;24.470;2023-04-25T05:31:27;99261.03;;;13.71;100.00
57572;BME280;44459;43.522;24.470;2023-04-25T05:33:53;99258.09;;;13.85;100.00
57572;BME280;44459;43.522;24.470;2023-04-25T05:36:19;99265.88;;;13.92;100.00
57572;BME280;44459;43.522;24.470;2023-04-25T05:38:44;99267.69;;;13.90;100.00
57572;BME280;44459;43.522;24.470;2023-04-25T05:41:10;99269.28;;;13.97;100.00
57572;BME280;44459;43.522;24.470;2023-04-25T05:43:35;99263.56;;;14.16;100.00
57572;BME280;44459;43.522;24.470;2023-04-25T05:46:01;99265.44;;;14.47;100.00
57572;BME280;44459;43.522;24.470;2023-04-25T05:48:26;99263.13;;;14.69;100.00
57572;BME280;44459;43.522;24.470;2023-04-25T05:50:52;99266.09;;;14.91;100.00
57572;BME280;44459;43.522;24.470;2023-04-25T05:53:18;99271.59;;;15.16;100.00
57572;BME280;44459;43.522;24.470;2023-04-25T05:55:44;99271.72;;;15.42;100.00
57572;BME280;44459;43.522;24.470;2023-04-25T05:58:09;99263.34;;;15.57;96.95
57572;BME280;44459;43.522;24.470;2023-04-25T06:00:35;99271.97;;;15.65;93.96
57572;BME280;44459;43.522;24.470;2023-04-25T06:03:00;99270.03;;;15.70;93.75
57572;BME280;44459;43.522;24.470;2023-04-25T06:05:26;99264.38;;;15.81;97.39
57572;BME280;44459;43.522;24.470;2023-04-25T06:07:52;99265.38;;;16.06;94.72
57572;BME280;44459;43.522;24.470;2023-04-25T06:10:17;99271.59;;;16.33;95.56
57572;BME280;44459;43.522;24.470;2023-04-25T06:12:43;99263.72;;;16.57;96.57
57572;BME280;44459;43.522;24.470;2023-04-25T06:15:09;99260.81;;;16.64;91.14
57572;BME280;44459;43.522;24.470;2023-04-25T06:17:35;99267.19;;;16.86;90.38
57572;BME280;44459;43.522;24.470;2023-04-25T06:20:01;99271.91;;;17.02;85.88
57572;BME280;44459;43.522;24.470;2023-04-25T06:22:27;99268.25;;;17.05;87.14
57572;BME280;44459;43.522;24.470;2023-04-25T06:24:52;99271.81;;;17.29;86.55
57572;BME280;44459;43.522;24.470;2023-04-25T06:27:17;99266.34;;;17.33;81.78
57572;BME280;44459;43.522;24.470;2023-04-25T06:29:43;99268.22;;;17.54;83.64
57572;BME280;44459;43.522;24.470;2023-04-25T06:32:08;99267.03;;;17.63;80.36
57572;BME280;44459;43.522;24.470;2023-04-25T06:34:34;99264.47;;;17.83;81.41
57572;BME280;44459;43.522;24.470;2023-04-25T06:36:59;99267.25;;;17.80;78.49
57572;BME280;44459;43.522;24.470;2023-04-25T06:39:24;99264.94;;;17.94;83.42
57572;BME280;44459;43.522;24.470;2023-04-25T06:41:50;99261.88;;;18.03;79.18
57572;BME280;44459;43.522;24.470;2023-04-25T06:44:16;99265.06;;;18.13;75.44
57572;BME280;44459;43.522;24.470;2023-04-25T06:46:41;99267.19;;;17.82;78.48
57572;BME280;44459;43.522;24.470;2023-04-25T06:49:07;99266.31;;;17.81;78.27
57572;BME280;44459;43.522;24.470;2023-04-25T06:51:32;99272.75;;;17.99;82.65
57572;BME280;44459;43.522;24.470;2023-04-25T06:53:58;99282.00;;;17.90;80.99
57572;BME280;44459;43.522;24.470;2023-04-25T06:56:24;99283.50;;;17.97;80.43
57572;BME280;44459;43.522;24.470;2023-04-25T06:58:50;99286.09;;;17.99;76.49
57572;BME280;44459;43.522;24.470;2023-04-25T07:01:15;99279.53;;;18.07;72.03
57572;BME280;44459;43.522;24.470;2023-04-25T07:03:41;99281.06;;;18.13;71.66
57572;BME280;44459;43.522;24.470;2023-04-25T07:06:06;99276.00;;;18.29;74.27
57572;BME280;44459;43.522;24.470;2023-04-25T07:08:32;99290.25;;;18.51;69.26
57572;BME280;44459;43.522;24.470;2023-04-25T07:10:57;99277.84;;;18.48;71.32
57572;BME280;44459;43.522;24.470;2023-04-25T07:13:23;99277.84;;;18.48;71.20
57572;BME280;44459;43.522;24.470;2023-04-25T07:15:48;99279.19;;;18.60;73.12
57572;BME280;44459;43.522;24.470;2023-04-25T07:18:14;99288.28;;;18.56;76.48
57572;BME280;44459;43.522;24.470;2023-04-25T07:20:39;99290.00;;;18.57;74.96
57572;BME280;44459;43.522;24.470;2023-04-25T07:23:05;99290.34;;;18.91;74.55
57572;BME280;44459;43.522;24.470;2023-04-25T07:25:30;99292.59;;;19.21;74.45
57572;BME280;44459;43.522;24.470;2023-04-25T07:27:56;99283.81;;;19.37;73.92
57572;BME280;44459;43.522;24.470;2023-04-25T07:30:22;99285.91;;;19.51;73.67
57572;BME280;44459;43.522;24.470;2023-04-25T07:32:48;99281.44;;;19.51;71.84
57572;BME280;44459;43.522;24.470;2023-04-25T07:35:14;99284.03;;;19.33;69.81
57572;BME280;44459;43.522;24.470;2023-04-25T07:37:39;99274.47;;;19.27;69.03
57572;BME280;44459;43.522;24.470;2023-04-25T07:40:05;99273.13;;;19.37;70.82
57572;BME280;44459;43.522;24.470;2023-04-25T07:42:31;99277.47;;;19.60;68.73
57572;BME280;44459;43.522;24.470;2023-04-25T07:44:57;99274.38;;;19.69;70.53
57572;BME280;44459;43.522;24.470;2023-04-25T07:47:22;99281.84;;;19.81;72.44
57572;BME280;44459;43.522;24.470;2023-04-25T07:49:48;99276.22;;;19.48;66.65
57572;BME280;44459;43.522;24.470;2023-04-25T07:52:14;99281.63;;;19.27;68.45
57572;BME280;44459;43.522;24.470;2023-04-25T07:54:39;99280.09;;;19.21;69.94
57572;BME280;44459;43.522;24.470;2023-04-25T07:57:05;99267.38;;;18.86;66.14
57572;BME280;44459;43.522;24.470;2023-04-25T07:59:32;99272.44;;;18.72;67.47
57572;BME280;44459;43.522;24.470;2023-04-25T08:01:57;99279.06;;;18.63;64.04
57572;BME280;44459;43.522;24.470;2023-04-25T08:04:23;99273.28;;;18.74;66.28
57572;BME280;44459;43.522;24.470;2023-04-25T08:06:49;99274.28;;;18.91;67.50
57572;BME280;44459;43.522;24.470;2023-04-25T08:09:15;99288.25;;;18.78;61.38
57572;BME280;44459;43.522;24.470;2023-04-25T08:11:40;99288.56;;;18.48;63.21
57572;BME280;44459;43.522;24.470;2023-04-25T08:14:06;99288.41;;;18.53;63.22
57572;BME280;44459;43.522;24.470;2023-04-25T08:16:32;99287.44;;;18.54;67.03
57572;BME280;44459;43.522;24.470;2023-04-25T08:18:59;99281.75;;;18.63;63.21
57572;BME280;44459;43.522;24.470;2023-04-25T08:21:24;99299.09;;;18.53;63.58
57572;BME280;44459;43.522;24.470;2023-04-25T08:23:52;99282.81;;;18.79;67.04
57572;BME280;44459;43.522;24.470;2023-04-25T08:26:17;99291.44;;;18.86;66.38
57572;BME280;44459;43.522;24.470;2023-04-25T08:28:43;99295.41;;;18.77;64.63
57572;BME280;44459;43.522;24.470;2023-04-25T08:31:08;99295.88;;;18.87;67.64
57572;BME280;44459;43.522;24.470;2023-04-25T08:33:34;99288.00;;;19.04;67.72
57572;BME280;44459;43.522;24.470;2023-04-25T08:35:59;99298.41;;;19.10;65.79
57572;BME280;44459;43.522;24.470;2023-04-25T08:38:25;99289.31;;;18.94;64.94
57572;BME280;44459;43.522;24.470;2023-04-25T08:40:51;99294.88;;;19.09;68.17
57572;BME280;44459;43.522;24.470;2023-04-25T08:43:19;99293.84;;;18.92;62.31
57572;BME280;44459;43.522;24.470;2023-04-25T08:45:46;99283.84;;;18.97;62.48
57572;BME280;44459;43.522;24.470;2023-04-25T08:48:13;99293.47;;;18.81;61.60
57572;BME280;44459;43.522;24.470;2023-04-25T08:50:49;99296.41;;;18.53;62.84
57572;BME280;44459;43.522;24.470;2023-04-25T08:53:17;99295.78;;;18.46;64.31
57572;BME280;44459;43.522;24.470;2023-04-25T08:55:46;99288.78;;;18.21;67.80
57572;BME280;44459;43.522;24.470;2023-04-25T08:58:13;99298.94;;;18.34;68.07
57572;BME280;44459;43.522;24.470;2023-04-25T09:00:39;99281.44;;;18.47;69.15
57572;BME280;44459;43.522;24.470;2023-04-25T09:03:05;99290.00;;;18.35;68.21
57572;BME280;44459;43.522;24.470;2023-04-25T09:05:32;99293.53;;;18.36;66.91
57572;BME280;44459;43.522;24.470;2023-04-25T09:07:58;99292.00;;;18.52;66.37
57572;BME280;44459;43.522;24.470;2023-04-25T09:10:23;99295.47;;;18.54;66.99
57572;BME280;44459;43.522;24.470;2023-04-25T09:13:26;99298.00;;;18.57;67.27
57572;BME280;44459;43.522;24.470;2023-04-25T09:15:54;99280.53;;;18.48;65.49
57572;BME280;44459;43.522;24.470;2023-04-25T09:18:26;99295.25;;;18.60;64.48
57572;BME280;44459;43.522;24.470;2023-04-25T09:20:56;99284.28;;;18.66;66.17
57572;BME280;44459;43.522;24.470;2023-04-25T09:23:22;99293.31;;;18.40;67.83
57572;BME280;44459;43.522;24.470;2023-04-25T09:25:52;99286.53;;;18.55;68.14
57572;BME280;44459;43.522;24.470;2023-04-25T09:28:25;99287.56;;;18.51;65.92
57572;BME280;44459;43.522;24.470;2023-04-25T09:30:55;99276.56;;;18.58;64.29
57572;BME280;44459;43.522;24.470;2023-04-25T09:33:32;99273.94;;;18.79;67.08
57572;BME280;44459;43.522;24.470;2023-04-25T09:36:03;99280.28;;;18.76;66.38
57572;BME280;44459;43.522;24.470;2023-04-25T09:38:31;99272.97;;;18.59;65.19
57572;BME280;44459;43.522;24.470;2023-04-25T09:40:58;99276.53;;;18.60;66.72
57572;BME280;44459;43.522;24.470;2023-04-25T09:43:26;99287.00;;;18.65;65.21
57572;BME280;44459;43.522;24.470;2023-04-25T09:45:53;99284.00;;;18.72;62.77
57572;BME280;44459;43.522;24.470;2023-04-25T09:48:25;99278.44;;;18.56;64.01
57572;BME280;44459;43.522;24.470;2023-04-25T09:51:12;99280.84;;;18.84;64.38
57572;BME280;44459;43.522;24.470;2023-04-25T09:53:43;99280.34;;;18.75;63.30
57572;BME280;44459;43.522;24.470;2023-04-25T09:56:10;99276.53;;;19.21;65.21
57572;BME280;44459;43.522;24.470;2023-04-25T09:58:37;99289.16;;;19.37;62.72
57572;BME280;44459;43.522;24.470;2023-04-25T10:01:08;99289.31;;;19.14;61.68
57572;BME280;44459;43.522;24.470;2023-04-25T10:03:35;99273.06;;;18.78;62.60
57572;BME280;44459;43.522;24.470;2023-04-25T10:06:07;99276.47;;;18.82;62.99
57572;BME280;44459;43.522;24.470;2023-04-25T10:08:35;99269.72;;;18.93;61.88
57572;BME280;44459;43.522;24.470;2023-04-25T10:11:03;99278.31;;;18.59;63.44
57572;BME280;44459;43.522;24.470;2023-04-25T10:13:29;99269.78;;;18.50;64.17
57572;BME280;44459;43.522;24.470;2023-04-25T10:15:57;99257.53;;;18.23;65.10
57572;BME280;44459;43.522;24.470;2023-04-25T10:18:25;99264.00;;;18.39;67.04
57572;BME280;44459;43.522;24.470;2023-04-25T10:20:50;99259.84;;;18.53;64.42
57572;BME280;44459;43.522;24.470;2023-04-25T10:23:16;99255.25;;;18.57;63.51
57572;BME280;44459;43.522;24.470;2023-04-25T10:25:43;99258.28;;;18.70;64.60
57572;BME280;44459;43.522;24.470;2023-04-25T10:28:09;99254.88;;;18.66;64.17
57572;BME280;44459;43.522;24.470;2023-04-25T10:30:34;99243.28;;;18.44;66.22
57572;BME280;44459;43.522;24.470;2023-04-25T10:33:00;99239.75;;;18.43;65.79
57572;BME280;44459;43.522;24.470;2023-04-25T10:35:28;99243.13;;;18.48;65.04
57572;BME280;44459;43.522;24.470;2023-04-25T10:38:08;99240.88;;;18.16;66.53
57572;BME280;44459;43.522;24.470;2023-04-25T10:40:34;99237.69;;;18.08;65.73
57572;BME280;44459;43.522;24.470;2023-04-25T10:45:56;99243.75;;;17.90;66.13
57572;BME280;44459;43.522;24.470;2023-04-25T10:48:29;99237.47;;;17.91;67.12
57572;BME280;44459;43.522;24.470;2023-04-25T10:51:08;99240.72;;;18.21;65.38
57572;BME280;44459;43.522;24.470;2023-04-25T10:53:34;99241.59;;;18.21;65.62
57572;BME280;44459;43.522;24.470;2023-04-25T10:56:00;99226.59;;;18.39;67.38
57572;BME280;44459;43.522;24.470;2023-04-25T10:58:26;99229.38;;;18.57;64.14
57572;BME280;44459;43.522;24.470;2023-04-25T11:00:51;99227.94;;;18.71;64.92
57572;BME280;44459;43.522;24.470;2023-04-25T11:03:17;99223.59;;;18.88;65.35
57572;BME280;44459;43.522;24.470;2023-04-25T11:05:46;99226.28;;;19.08;64.22
57572;BME280;44459;43.522;24.470;2023-04-25T11:08:21;99215.91;;;19.01;62.32
57572;BME280;44459;43.522;24.470;2023-04-25T11:10:52;99219.84;;;18.92;62.44
57572;BME280;44459;43.522;24.470;2023-04-25T11:13:20;99214.09;;;18.81;61.63
57572;BME280;44459;43.522;24.470;2023-04-25T11:15:51;99223.34;;;18.74;62.85
57572;BME280;44459;43.522;24.470;2023-04-25T11:18:16;99224.53;;;18.87;63.86
57572;BME280;44459;43.522;24.470;2023-04-25T11:20:43;99219.56;;;18.78;64.28
57572;BME280;44459;43.522;24.470;2023-04-25T11:23:08;99222.78;;;18.86;63.27
57572;BME280;44459;43.522;24.470;2023-04-25T11:25:34;99230.50;;;18.94;64.19
57572;BME280;44459;43.522;24.470;2023-04-25T11:27:59;99222.88;;;19.05;63.02
57572;BME280;44459;43.522;24.470;2023-04-25T11:30:28;99220.50;;;19.18;62.06
57572;BME280;44459;43.522;24.470;2023-04-25T11:32:56;99216.34;;;19.10;62.96
57572;BME280;44459;43.522;24.470;2023-04-25T11:35:21;99218.72;;;19.37;63.13
57572;BME280;44459;43.522;24.470;2023-04-25T11:37:50;99222.97;;;19.22;61.75
57572;BME280;44459;43.522;24.470;2023-04-25T11:40:16;99221.75;;;19.09;63.15
57572;BME280;44459;43.522;24.470;2023-04-25T11:42:46;99228.13;;;19.06;63.74
57572;BME280;44459;43.522;24.470;2023-04-25T11:45:13;99223.22;;;19.16;65.24
57572;BME280;44459;43.522;24.470;2023-04-25T11:47:38;99214.84;;;19.44;63.67
57572;BME280;44459;43.522;24.470;2023-04-25T11:50:06;99222.97;;;19.42;62.47
57572;BME280;44459;43.522;24.470;2023-04-25T11:52:43;99210.84;;;19.54;60.08
57572;BME280;44459;43.522;24.470;2023-04-25T11:55:19;99200.53;;;19.82;62.91
57572;BME280;44459;43.522;24.470;2023-04-25T11:57:47;99192.09;;;20.08;61.80
57572;BME280;44459;43.522;24.470;2023-04-25T12:00:15;99200.50;;;20.20;59.42
57572;BME280;44459;43.522;24.470;2023-04-25T12:02:54;99185.19;;;19.86;57.44
57572;BME280;44459;43.522;24.470;2023-04-25T12:05:23;99195.59;;;19.36;58.69
57572;BME280;44459;43.522;24.470;2023-04-25T12:07:48;99188.63;;;19.32;59.35
57572;BME280;44459;43.522;24.470;2023-04-25T12:10:15;99177.88;;;19.52;60.75
57572;BME280;44459;43.522;24.470;2023-04-25T12:12:43;99181.66;;;19.48;60.24
57572;BME280;44459;43.522;24.470;2023-04-25T12:15:16;99181.16;;;19.20;60.25
57572;BME280;44459;43.522;24.470;2023-04-25T12:17:46;99221.72;;;19.10;61.50
57572;BME280;44459;43.522;24.470;2023-04-25T12:20:19;99194.81;;;18.11;54.95
57572;BME280;44459;43.522;24.470;2023-04-25T12:22:47;99210.81;;;17.43;57.65
57572;BME280;44459;43.522;24.470;2023-04-25T12:25:34;99203.81;;;16.69;61.18
57572;BME280;44459;43.522;24.470;2023-04-25T12:28:19;99207.78;;;16.30;61.25
57572;BME280;44459;43.522;24.470;2023-04-25T12:33:21;99230.53;;;14.95;80.99
57572;BME280;44459;43.522;24.470;2023-04-25T12:35:47;99223.50;;;14.25;92.63
57572;BME280;44459;43.522;24.470;2023-04-25T12:38:24;99226.84;;;13.97;99.34
57572;BME280;44459;43.522;24.470;2023-04-25T12:40:49;99219.72;;;13.99;100.00
57572;BME280;44459;43.522;24.470;2023-04-25T12:43:15;99225.25;;;13.89;100.00
57572;BME280;44459;43.522;24.470;2023-04-25T12:45:40;99220.09;;;13.84;100.00
57572;BME280;44459;43.522;24.470;2023-04-25T12:48:06;99231.50;;;13.88;100.00